sensor_id;sensor_type;location;lat;lon;timestamp;pressure;altitude;pressure_sealevel;temperature;humidity
54924;BME280;40825;52.270;20.984;2022-08-03T00:00:00;100841.37;;;21.66;65.95
54924;BME280;40825;52.270;20.984;2022-08-03T00:00:32;100837.50;;;21.67;65.90
54924;BME280;40825;52.270;20.984;2022-08-03T00:00:58;100840.42;;;21.65;65.92
54924;BME280;40825;52.270;20.984;2022-08-03T00:01:19;100839.23;;;21.63;66.11
54924;BME280;40825;52.270;20.984;2022-08-03T00:01:42;100840.21;;;21.64;66.06
54924;BME280;40825;52.270;20.984;2022-08-03T00:02:03;100840.48;;;21.65;66.22
54924;BME280;40825;52.270;20.984;2022-08-03T00:02:25;100838.86;;;21.66;66.17
54924;BME280;40825;52.270;20.984;2022-08-03T00:02:47;100837.80;;;21.67;66.24
54924;BME280;40825;52.270;20.984;2022-08-03T00:03:08;100838.05;;;21.68;66.22
54924;BME280;40825;52.270;20.984;2022-08-03T00:03:30;100839.52;;;21.69;66.16
54924;BME280;40825;52.270;20.984;2022-08-03T00:03:55;100836.63;;;21.69;66.12
54924;BME280;40825;52.270;20.984;2022-08-03T00:04:17;100835.83;;;21.69;65.97
54924;BME280;40825;52.270;20.984;2022-08-03T00:04:43;100840.11;;;21.69;66.01
54924;BME280;40825;52.270;20.984;2022-08-03T00:05:08;100836.30;;;21.68;66.04
54924;BME280;40825;52.270;20.984;2022-08-03T00:05:50;100839.23;;;21.68;65.90
54924;BME280;40825;52.270;20.984;2022-08-03T00:06:11;100839.00;;;21.63;65.84
54924;BME280;40825;52.270;20.984;2022-08-03T00:06:33;100837.02;;;21.61;66.01
54924;BME280;40825;52.270;20.984;2022-08-03T00:06:55;100836.46;;;21.61;66.04
54924;BME280;40825;52.270;20.984;2022-08-03T00:07:16;100840.67;;;21.62;65.97
54924;BME280;40825;52.270;20.984;2022-08-03T00:07:46;100834.33;;;21.63;66.15
54924;BME280;40825;52.270;20.984;2022-08-03T00:08:07;100838.19;;;21.63;66.14
54924;BME280;40825;52.270;20.984;2022-08-03T00:08:49;100841.76;;;21.62;66.21
54924;BME280;40825;52.270;20.984;2022-08-03T00:09:11;100838.28;;;21.58;66.02
54924;BME280;40825;52.270;20.984;2022-08-03T00:09:32;100839.30;;;21.56;66.22
54924;BME280;40825;52.270;20.984;2022-08-03T00:09:54;100837.77;;;21.55;66.15
54924;BME280;40825;52.270;20.984;2022-08-03T00:10:18;100838.58;;;21.56;66.15
54924;BME280;40825;52.270;20.984;2022-08-03T00:10:40;100838.32;;;21.55;66.15
54924;BME280;40825;52.270;20.984;2022-08-03T00:11:02;100836.55;;;21.54;66.23
54924;BME280;40825;52.270;20.984;2022-08-03T00:11:24;100835.40;;;21.53;66.13
54924;BME280;40825;52.270;20.984;2022-08-03T00:11:46;100834.04;;;21.53;66.20
54924;BME280;40825;52.270;20.984;2022-08-03T00:12:09;100834.73;;;21.53;66.17
54924;BME280;40825;52.270;20.984;2022-08-03T00:12:30;100833.01;;;21.52;66.12
54924;BME280;40825;52.270;20.984;2022-08-03T00:12:52;100832.95;;;21.52;66.07
54924;BME280;40825;52.270;20.984;2022-08-03T00:13:14;100832.77;;;21.51;66.07
54924;BME280;40825;52.270;20.984;2022-08-03T00:13:36;100836.30;;;21.50;66.13
54924;BME280;40825;52.270;20.984;2022-08-03T00:13:58;100835.20;;;21.49;66.09
54924;BME280;40825;52.270;20.984;2022-08-03T00:14:19;100834.70;;;21.49;66.11
54924;BME280;40825;52.270;20.984;2022-08-03T00:14:51;100835.44;;;21.47;66.15
54924;BME280;40825;52.270;20.984;2022-08-03T00:15:13;100835.77;;;21.43;66.09
54924;BME280;40825;52.270;20.984;2022-08-03T00:15:35;100834.95;;;21.41;66.23
54924;BME280;40825;52.270;20.984;2022-08-03T00:15:56;100831.77;;;21.41;66.26
54924;BME280;40825;52.270;20.984;2022-08-03T00:16:18;100838.31;;;21.41;66.15
54924;BME280;40825;52.270;20.984;2022-08-03T00:16:40;100832.43;;;21.40;66.17
54924;BME280;40825;52.270;20.984;2022-08-03T00:17:02;100836.13;;;21.41;66.34
54924;BME280;40825;52.270;20.984;2022-08-03T00:17:24;100832.73;;;21.42;66.22
54924;BME280;40825;52.270;20.984;2022-08-03T00:17:45;100835.71;;;21.42;66.37
54924;BME280;40825;52.270;20.984;2022-08-03T00:18:07;100835.29;;;21.43;66.26
54924;BME280;40825;52.270;20.984;2022-08-03T00:18:49;100832.70;;;21.39;66.31
54924;BME280;40825;52.270;20.984;2022-08-03T00:19:11;100836.12;;;21.36;66.59
54924;BME280;40825;52.270;20.984;2022-08-03T00:19:33;100830.32;;;21.37;66.56
54924;BME280;40825;52.270;20.984;2022-08-03T00:19:55;100833.08;;;21.39;66.59
54924;BME280;40825;52.270;20.984;2022-08-03T00:20:16;100836.17;;;21.39;66.60
54924;BME280;40825;52.270;20.984;2022-08-03T00:20:38;100835.81;;;21.40;66.60
54924;BME280;40825;52.270;20.984;2022-08-03T00:21:03;100835.83;;;21.42;66.65
54924;BME280;40825;52.270;20.984;2022-08-03T00:21:28;100832.02;;;21.42;66.57
54924;BME280;40825;52.270;20.984;2022-08-03T00:21:52;100834.77;;;21.43;66.48
54924;BME280;40825;52.270;20.984;2022-08-03T00:22:14;100832.90;;;21.43;66.53
54924;BME280;40825;52.270;20.984;2022-08-03T00:22:36;100835.34;;;21.43;66.42
54924;BME280;40825;52.270;20.984;2022-08-03T00:22:58;100833.23;;;21.46;66.39
54924;BME280;40825;52.270;20.984;2022-08-03T00:23:19;100833.92;;;21.47;66.46
54924;BME280;40825;52.270;20.984;2022-08-03T00:23:41;100835.13;;;21.47;66.39
54924;BME280;40825;52.270;20.984;2022-08-03T00:24:03;100836.91;;;21.47;66.32
54924;BME280;40825;52.270;20.984;2022-08-03T00:24:25;100837.34;;;21.47;66.17
54924;BME280;40825;52.270;20.984;2022-08-03T00:24:46;100839.20;;;21.47;66.41
54924;BME280;40825;52.270;20.984;2022-08-03T00:25:08;100838.86;;;21.47;66.21
54924;BME280;40825;52.270;20.984;2022-08-03T00:25:30;100837.21;;;21.46;66.28
54924;BME280;40825;52.270;20.984;2022-08-03T00:25:51;100837.49;;;21.46;66.26
54924;BME280;40825;52.270;20.984;2022-08-03T00:26:13;100836.73;;;21.46;66.18
54924;BME280;40825;52.270;20.984;2022-08-03T00:26:35;100837.56;;;21.47;66.29
54924;BME280;40825;52.270;20.984;2022-08-03T00:26:56;100836.75;;;21.47;66.27
54924;BME280;40825;52.270;20.984;2022-08-03T00:27:18;100840.13;;;21.48;66.00
54924;BME280;40825;52.270;20.984;2022-08-03T00:27:40;100839.15;;;21.48;66.14
54924;BME280;40825;52.270;20.984;2022-08-03T00:28:03;100839.68;;;21.48;66.03
54924;BME280;40825;52.270;20.984;2022-08-03T00:28:25;100841.75;;;21.47;66.06
54924;BME280;40825;52.270;20.984;2022-08-03T00:28:48;100841.84;;;21.46;66.12
54924;BME280;40825;52.270;20.984;2022-08-03T00:29:10;100840.85;;;21.45;66.09
54924;BME280;40825;52.270;20.984;2022-08-03T00:29:31;100837.52;;;21.43;66.12
54924;BME280;40825;52.270;20.984;2022-08-03T00:29:53;100840.23;;;21.43;66.19
54924;BME280;40825;52.270;20.984;2022-08-03T00:30:15;100837.90;;;21.43;66.18
54924;BME280;40825;52.270;20.984;2022-08-03T00:30:39;100838.77;;;21.42;66.24
54924;BME280;40825;52.270;20.984;2022-08-03T00:31:01;100840.50;;;21.42;66.26
54924;BME280;40825;52.270;20.984;2022-08-03T00:31:22;100839.44;;;21.40;66.16
54924;BME280;40825;52.270;20.984;2022-08-03T00:31:44;100835.36;;;21.40;66.24
54924;BME280;40825;52.270;20.984;2022-08-03T00:32:05;100838.25;;;21.40;66.19
54924;BME280;40825;52.270;20.984;2022-08-03T00:32:27;100835.63;;;21.40;66.24
54924;BME280;40825;52.270;20.984;2022-08-03T00:32:49;100838.52;;;21.40;66.24
54924;BME280;40825;52.270;20.984;2022-08-03T00:33:19;100838.78;;;21.39;66.27
54924;BME280;40825;52.270;20.984;2022-08-03T00:33:41;100839.01;;;21.37;66.37
54924;BME280;40825;52.270;20.984;2022-08-03T00:34:02;100838.06;;;21.35;66.32
54924;BME280;40825;52.270;20.984;2022-08-03T00:34:24;100838.49;;;21.34;66.45
54924;BME280;40825;52.270;20.984;2022-08-03T00:34:46;100838.44;;;21.34;66.42
54924;BME280;40825;52.270;20.984;2022-08-03T00:35:07;100840.19;;;21.35;66.40
54924;BME280;40825;52.270;20.984;2022-08-03T00:35:30;100838.55;;;21.35;66.44
54924;BME280;40825;52.270;20.984;2022-08-03T00:35:52;100839.48;;;21.35;66.34
54924;BME280;40825;52.270;20.984;2022-08-03T00:36:13;100839.00;;;21.35;66.29
54924;BME280;40825;52.270;20.984;2022-08-03T00:36:35;100834.88;;;21.36;66.41
54924;BME280;40825;52.270;20.984;2022-08-03T00:37:16;100837.54;;;21.36;66.53
54924;BME280;40825;52.270;20.984;2022-08-03T00:37:41;100837.15;;;21.30;66.34
54924;BME280;40825;52.270;20.984;2022-08-03T00:38:03;100834.71;;;21.27;66.41
54924;BME280;40825;52.270;20.984;2022-08-03T00:38:25;100837.96;;;21.26;66.42
54924;BME280;40825;52.270;20.984;2022-08-03T00:38:49;100839.88;;;21.27;66.40
54924;BME280;40825;52.270;20.984;2022-08-03T00:39:11;100836.29;;;21.27;66.57
54924;BME280;40825;52.270;20.984;2022-08-03T00:39:32;100836.94;;;21.27;66.57
54924;BME280;40825;52.270;20.984;2022-08-03T00:39:54;100837.88;;;21.28;66.45
54924;BME280;40825;52.270;20.984;2022-08-03T00:40:17;100836.08;;;21.28;66.47
54924;BME280;40825;52.270;20.984;2022-08-03T00:40:39;100837.98;;;21.28;66.48
54924;BME280;40825;52.270;20.984;2022-08-03T00:41:01;100835.05;;;21.29;66.38
54924;BME280;40825;52.270;20.984;2022-08-03T00:41:22;100838.38;;;21.29;66.57
54924;BME280;40825;52.270;20.984;2022-08-03T00:41:43;100838.19;;;21.31;66.57
54924;BME280;40825;52.270;20.984;2022-08-03T00:42:05;100838.89;;;21.32;66.60
54924;BME280;40825;52.270;20.984;2022-08-03T00:42:27;100840.08;;;21.34;66.68
54924;BME280;40825;52.270;20.984;2022-08-03T00:42:52;100838.55;;;21.35;66.65
54924;BME280;40825;52.270;20.984;2022-08-03T00:43:14;100837.65;;;21.36;66.72
54924;BME280;40825;52.270;20.984;2022-08-03T00:43:36;100837.77;;;21.37;66.78
54924;BME280;40825;52.270;20.984;2022-08-03T00:43:57;100837.98;;;21.37;66.86
54924;BME280;40825;52.270;20.984;2022-08-03T00:44:19;100838.66;;;21.39;66.80
54924;BME280;40825;52.270;20.984;2022-08-03T00:44:42;100837.98;;;21.39;66.72
54924;BME280;40825;52.270;20.984;2022-08-03T00:45:07;100840.31;;;21.41;66.68
54924;BME280;40825;52.270;20.984;2022-08-03T00:45:37;100839.95;;;21.41;66.59
54924;BME280;40825;52.270;20.984;2022-08-03T00:45:59;100841.17;;;21.40;66.48
54924;BME280;40825;52.270;20.984;2022-08-03T00:46:20;100843.34;;;21.39;66.73
54924;BME280;40825;52.270;20.984;2022-08-03T00:46:42;100842.84;;;21.40;66.74
54924;BME280;40825;52.270;20.984;2022-08-03T00:47:04;100838.89;;;21.41;66.92
54924;BME280;40825;52.270;20.984;2022-08-03T00:47:25;100839.73;;;21.42;66.96
54924;BME280;40825;52.270;20.984;2022-08-03T00:47:47;100840.66;;;21.43;66.79
54924;BME280;40825;52.270;20.984;2022-08-03T00:48:10;100841.16;;;21.44;66.93
54924;BME280;40825;52.270;20.984;2022-08-03T00:48:32;100838.83;;;21.44;66.86
54924;BME280;40825;52.270;20.984;2022-08-03T00:48:54;100841.27;;;21.44;66.90
54924;BME280;40825;52.270;20.984;2022-08-03T00:49:18;100843.77;;;21.44;66.78
54924;BME280;40825;52.270;20.984;2022-08-03T00:49:40;100838.71;;;21.43;66.86
54924;BME280;40825;52.270;20.984;2022-08-03T00:50:02;100840.77;;;21.42;66.85
54924;BME280;40825;52.270;20.984;2022-08-03T00:50:26;100841.04;;;21.43;66.90
54924;BME280;40825;52.270;20.984;2022-08-03T00:50:48;100841.21;;;21.43;66.98
54924;BME280;40825;52.270;20.984;2022-08-03T00:51:13;100839.46;;;21.42;66.74
54924;BME280;40825;52.270;20.984;2022-08-03T00:51:35;100841.10;;;21.42;66.77
54924;BME280;40825;52.270;20.984;2022-08-03T00:52:00;100844.08;;;21.42;66.82
54924;BME280;40825;52.270;20.984;2022-08-03T00:52:30;100841.90;;;21.42;66.84
54924;BME280;40825;52.270;20.984;2022-08-03T00:52:56;100838.78;;;21.40;66.90
54924;BME280;40825;52.270;20.984;2022-08-03T00:53:18;100841.44;;;21.38;66.85
54924;BME280;40825;52.270;20.984;2022-08-03T00:53:40;100840.27;;;21.38;66.86
54924;BME280;40825;52.270;20.984;2022-08-03T00:54:02;100839.48;;;21.38;66.91
54924;BME280;40825;52.270;20.984;2022-08-03T00:54:24;100840.68;;;21.38;66.76
54924;BME280;40825;52.270;20.984;2022-08-03T00:54:48;100838.83;;;21.39;66.90
54924;BME280;40825;52.270;20.984;2022-08-03T00:55:11;100841.06;;;21.39;66.94
54924;BME280;40825;52.270;20.984;2022-08-03T00:55:35;100839.86;;;21.39;66.99
54924;BME280;40825;52.270;20.984;2022-08-03T00:55:57;100840.89;;;21.38;67.11
54924;BME280;40825;52.270;20.984;2022-08-03T00:56:22;100840.95;;;21.38;67.24
54924;BME280;40825;52.270;20.984;2022-08-03T00:56:43;100841.90;;;21.38;67.22
54924;BME280;40825;52.270;20.984;2022-08-03T00:57:07;100840.60;;;21.38;67.36
54924;BME280;40825;52.270;20.984;2022-08-03T00:57:34;100843.27;;;21.38;67.25
54924;BME280;40825;52.270;20.984;2022-08-03T00:57:57;100843.84;;;21.37;67.34
54924;BME280;40825;52.270;20.984;2022-08-03T00:58:19;100843.29;;;21.36;67.29
54924;BME280;40825;52.270;20.984;2022-08-03T00:58:45;100843.61;;;21.36;67.38
54924;BME280;40825;52.270;20.984;2022-08-03T00:59:08;100845.77;;;21.35;67.52
54924;BME280;40825;52.270;20.984;2022-08-03T00:59:30;100846.16;;;21.35;67.51
54924;BME280;40825;52.270;20.984;2022-08-03T00:59:53;100845.40;;;21.35;67.57
54924;BME280;40825;52.270;20.984;2022-08-03T01:00:18;100843.77;;;21.35;67.52
54924;BME280;40825;52.270;20.984;2022-08-03T01:00:43;100846.64;;;21.34;67.49
54924;BME280;40825;52.270;20.984;2022-08-03T01:01:10;100844.00;;;21.32;67.40
54924;BME280;40825;52.270;20.984;2022-08-03T01:02:45;100842.79;;;21.13;67.43
54924;BME280;40825;52.270;20.984;2022-08-03T01:03:10;100844.18;;;21.11;67.73
54924;BME280;40825;52.270;20.984;2022-08-03T01:03:32;100846.98;;;21.13;67.72
54924;BME280;40825;52.270;20.984;2022-08-03T01:03:54;100846.28;;;21.14;67.91
54924;BME280;40825;52.270;20.984;2022-08-03T01:04:19;100845.70;;;21.15;67.99
54924;BME280;40825;52.270;20.984;2022-08-03T01:05:01;100846.70;;;21.17;67.77
54924;BME280;40825;52.270;20.984;2022-08-03T01:05:23;100844.79;;;21.12;67.66
54924;BME280;40825;52.270;20.984;2022-08-03T01:06:25;100845.83;;;21.09;67.90
54924;BME280;40825;52.270;20.984;2022-08-03T01:08:01;100846.00;;;20.90;68.07
54924;BME280;40825;52.270;20.984;2022-08-03T01:10:06;100846.89;;;20.74;68.37
54924;BME280;40825;52.270;20.984;2022-08-03T01:12:03;100846.60;;;20.55;68.52
54924;BME280;40825;52.270;20.984;2022-08-03T01:12:34;100846.27;;;20.55;68.90
54924;BME280;40825;52.270;20.984;2022-08-03T01:13:47;100842.02;;;20.57;69.10
54924;BME280;40825;52.270;20.984;2022-08-03T01:14:16;100842.78;;;20.56;68.94
54924;BME280;40825;52.270;20.984;2022-08-03T01:15:38;100845.44;;;20.54;69.04
54924;BME280;40825;52.270;20.984;2022-08-03T01:16:25;100852.27;;;20.47;69.29
54924;BME280;40825;52.270;20.984;2022-08-03T01:17:04;100848.08;;;20.45;69.37
54924;BME280;40825;52.270;20.984;2022-08-03T01:17:35;100850.59;;;20.43;69.39
54924;BME280;40825;52.270;20.984;2022-08-03T01:18:13;100848.93;;;20.42;69.53
54924;BME280;40825;52.270;20.984;2022-08-03T01:19:11;100853.27;;;20.42;69.41
54924;BME280;40825;52.270;20.984;2022-08-03T01:20:05;100849.10;;;20.35;69.38
54924;BME280;40825;52.270;20.984;2022-08-03T01:20:34;100848.60;;;20.31;69.43
54924;BME280;40825;52.270;20.984;2022-08-03T01:20:59;100850.62;;;20.31;69.78
54924;BME280;40825;52.270;20.984;2022-08-03T01:21:44;100852.65;;;20.33;69.95
54924;BME280;40825;52.270;20.984;2022-08-03T01:23:14;100853.55;;;20.28;69.75
54924;BME280;40825;52.270;20.984;2022-08-03T01:26:02;100850.98;;;20.12;70.27
54924;BME280;40825;52.270;20.984;2022-08-03T01:26:51;100852.80;;;20.14;70.19
54924;BME280;40825;52.270;20.984;2022-08-03T01:27:57;100850.86;;;20.11;70.47
54924;BME280;40825;52.270;20.984;2022-08-03T01:30:42;100848.88;;;20.00;70.41
54924;BME280;40825;52.270;20.984;2022-08-03T01:31:21;100850.70;;;20.00;70.78
54924;BME280;40825;52.270;20.984;2022-08-03T01:32:01;100852.16;;;20.01;70.74
54924;BME280;40825;52.270;20.984;2022-08-03T01:32:57;100850.31;;;20.01;70.74
54924;BME280;40825;52.270;20.984;2022-08-03T01:33:38;100849.05;;;19.98;70.75
54924;BME280;40825;52.270;20.984;2022-08-03T01:34:03;100850.34;;;19.97;70.94
54924;BME280;40825;52.270;20.984;2022-08-03T01:34:30;100846.89;;;19.98;71.19
54924;BME280;40825;52.270;20.984;2022-08-03T01:36:27;100847.85;;;19.95;70.92
54924;BME280;40825;52.270;20.984;2022-08-03T01:37:06;100844.15;;;19.94;71.13
54924;BME280;40825;52.270;20.984;2022-08-03T01:37:44;100849.95;;;19.94;71.20
54924;BME280;40825;52.270;20.984;2022-08-03T01:38:35;100848.98;;;19.94;71.26
54924;BME280;40825;52.270;20.984;2022-08-03T01:39:05;100846.05;;;19.92;71.28
54924;BME280;40825;52.270;20.984;2022-08-03T01:40:02;100849.80;;;19.92;71.46
54924;BME280;40825;52.270;20.984;2022-08-03T01:40:44;100844.85;;;19.89;71.30
54924;BME280;40825;52.270;20.984;2022-08-03T01:42:06;100843.48;;;19.85;71.34
54924;BME280;40825;52.270;20.984;2022-08-03T01:42:31;100849.48;;;19.76;71.25
54924;BME280;40825;52.270;20.984;2022-08-03T01:43:15;100846.27;;;19.72;71.34
54924;BME280;40825;52.270;20.984;2022-08-03T01:43:39;100846.70;;;19.71;71.60
54924;BME280;40825;52.270;20.984;2022-08-03T01:44:08;100848.73;;;19.73;71.75
54924;BME280;40825;52.270;20.984;2022-08-03T01:44:37;100847.44;;;19.74;71.70
54924;BME280;40825;52.270;20.984;2022-08-03T01:45:14;100843.45;;;19.72;71.61
54924;BME280;40825;52.270;20.984;2022-08-03T01:45:46;100846.77;;;19.72;71.81
54924;BME280;40825;52.270;20.984;2022-08-03T01:46:09;100844.98;;;19.72;71.91
54924;BME280;40825;52.270;20.984;2022-08-03T01:46:57;100845.66;;;19.74;71.93
54924;BME280;40825;52.270;20.984;2022-08-03T01:47:28;100844.90;;;19.71;71.68
54924;BME280;40825;52.270;20.984;2022-08-03T01:48:14;100846.77;;;19.69;71.88
54924;BME280;40825;52.270;20.984;2022-08-03T01:49:55;100845.52;;;19.64;71.96
54924;BME280;40825;52.270;20.984;2022-08-03T01:50:20;100843.98;;;19.62;71.91
54924;BME280;40825;52.270;20.984;2022-08-03T01:51:09;100844.53;;;19.63;72.12
54924;BME280;40825;52.270;20.984;2022-08-03T01:53:06;100840.80;;;19.61;71.96
54924;BME280;40825;52.270;20.984;2022-08-03T01:53:30;100839.69;;;19.62;72.35
54924;BME280;40825;52.270;20.984;2022-08-03T01:54:28;100839.86;;;19.66;72.24
54924;BME280;40825;52.270;20.984;2022-08-03T01:55:02;100837.77;;;19.67;72.22
54924;BME280;40825;52.270;20.984;2022-08-03T01:55:31;100839.36;;;19.68;72.49
54924;BME280;40825;52.270;20.984;2022-08-03T01:55:56;100837.27;;;19.71;72.47
54924;BME280;40825;52.270;20.984;2022-08-03T01:56:21;100840.83;;;19.73;72.59
54924;BME280;40825;52.270;20.984;2022-08-03T01:56:53;100833.83;;;19.75;72.52
54924;BME280;40825;52.270;20.984;2022-08-03T01:57:21;100839.52;;;19.78;72.52
54924;BME280;40825;52.270;20.984;2022-08-03T01:57:44;100831.12;;;19.78;72.58
54924;BME280;40825;52.270;20.984;2022-08-03T01:58:13;100835.83;;;19.81;72.53
54924;BME280;40825;52.270;20.984;2022-08-03T01:58:40;100839.61;;;19.84;72.56
54924;BME280;40825;52.270;20.984;2022-08-03T01:59:03;100834.66;;;19.85;72.66
54924;BME280;40825;52.270;20.984;2022-08-03T01:59:31;100835.02;;;19.88;72.57
54924;BME280;40825;52.270;20.984;2022-08-03T02:00:04;100834.50;;;19.88;72.53
54924;BME280;40825;52.270;20.984;2022-08-03T02:00:30;100834.87;;;19.88;72.48
54924;BME280;40825;52.270;20.984;2022-08-03T02:00:55;100830.91;;;19.88;72.71
54924;BME280;40825;52.270;20.984;2022-08-03T02:01:24;100834.09;;;19.90;72.63
54924;BME280;40825;52.270;20.984;2022-08-03T02:01:47;100831.73;;;19.91;72.62
54924;BME280;40825;52.270;20.984;2022-08-03T02:02:12;100830.40;;;19.93;72.69
54924;BME280;40825;52.270;20.984;2022-08-03T02:02:35;100834.05;;;19.95;72.59
54924;BME280;40825;52.270;20.984;2022-08-03T02:02:59;100831.14;;;19.96;72.58
54924;BME280;40825;52.270;20.984;2022-08-03T02:03:23;100832.02;;;19.97;72.56
54924;BME280;40825;52.270;20.984;2022-08-03T02:04:08;100830.97;;;19.98;72.51
54924;BME280;40825;52.270;20.984;2022-08-03T02:04:31;100829.74;;;19.96;72.29
54924;BME280;40825;52.270;20.984;2022-08-03T02:05:36;100827.77;;;19.95;72.44
54924;BME280;40825;52.270;20.984;2022-08-03T02:05:57;100827.66;;;19.88;72.22
54924;BME280;40825;52.270;20.984;2022-08-03T02:06:20;100828.23;;;19.87;72.51
54924;BME280;40825;52.270;20.984;2022-08-03T02:06:46;100829.02;;;19.89;72.47
54924;BME280;40825;52.270;20.984;2022-08-03T02:07:18;100830.53;;;19.91;72.45
54924;BME280;40825;52.270;20.984;2022-08-03T02:07:44;100825.84;;;19.90;72.26
54924;BME280;40825;52.270;20.984;2022-08-03T02:08:09;100829.75;;;19.90;72.35
54924;BME280;40825;52.270;20.984;2022-08-03T02:08:32;100828.25;;;19.90;72.33
54924;BME280;40825;52.270;20.984;2022-08-03T02:08:55;100828.10;;;19.91;72.44
54924;BME280;40825;52.270;20.984;2022-08-03T02:09:21;100828.77;;;19.92;72.39
54924;BME280;40825;52.270;20.984;2022-08-03T02:09:46;100825.48;;;19.95;72.35
54924;BME280;40825;52.270;20.984;2022-08-03T02:10:19;100827.44;;;19.95;72.31
54924;BME280;40825;52.270;20.984;2022-08-03T02:10:42;100826.45;;;19.93;72.14
54924;BME280;40825;52.270;20.984;2022-08-03T02:11:04;100823.80;;;19.93;72.24
54924;BME280;40825;52.270;20.984;2022-08-03T02:11:29;100824.95;;;19.93;72.30
54924;BME280;40825;52.270;20.984;2022-08-03T02:11:55;100826.23;;;19.94;72.34
54924;BME280;40825;52.270;20.984;2022-08-03T02:12:19;100823.23;;;19.94;72.33
54924;BME280;40825;52.270;20.984;2022-08-03T02:12:56;100825.31;;;19.94;72.22
54924;BME280;40825;52.270;20.984;2022-08-03T02:13:21;100824.43;;;19.92;72.22
54924;BME280;40825;52.270;20.984;2022-08-03T02:13:45;100823.70;;;19.91;72.23
54924;BME280;40825;52.270;20.984;2022-08-03T02:14:48;100824.49;;;19.87;72.10
54924;BME280;40825;52.270;20.984;2022-08-03T02:15:28;100822.54;;;19.81;72.25
54924;BME280;40825;52.270;20.984;2022-08-03T02:15:51;100820.30;;;19.80;72.54
54924;BME280;40825;52.270;20.984;2022-08-03T02:16:21;100823.84;;;19.83;72.54
54924;BME280;40825;52.270;20.984;2022-08-03T02:16:43;100822.08;;;19.85;72.29
54924;BME280;40825;52.270;20.984;2022-08-03T02:17:07;100823.84;;;19.83;72.41
54924;BME280;40825;52.270;20.984;2022-08-03T02:18:00;100820.59;;;19.83;72.57
54924;BME280;40825;52.270;20.984;2022-08-03T02:18:24;100820.04;;;19.83;72.60
54924;BME280;40825;52.270;20.984;2022-08-03T02:18:47;100822.66;;;19.84;72.57
54924;BME280;40825;52.270;20.984;2022-08-03T02:19:09;100822.83;;;19.87;72.66
54924;BME280;40825;52.270;20.984;2022-08-03T02:19:39;100819.61;;;19.90;72.68
54924;BME280;40825;52.270;20.984;2022-08-03T02:20:04;100821.93;;;19.94;72.43
54924;BME280;40825;52.270;20.984;2022-08-03T02:20:27;100816.91;;;19.94;72.51
54924;BME280;40825;52.270;20.984;2022-08-03T02:21:01;100817.36;;;19.96;72.41
54924;BME280;40825;52.270;20.984;2022-08-03T02:21:28;100820.30;;;19.96;72.58
54924;BME280;40825;52.270;20.984;2022-08-03T02:22:07;100817.35;;;19.98;72.40
54924;BME280;40825;52.270;20.984;2022-08-03T02:22:43;100815.52;;;19.96;72.43
54924;BME280;40825;52.270;20.984;2022-08-03T02:23:07;100820.94;;;19.95;72.60
54924;BME280;40825;52.270;20.984;2022-08-03T02:24:23;100818.05;;;19.93;72.38
54924;BME280;40825;52.270;20.984;2022-08-03T02:24:45;100819.88;;;19.92;72.54
54924;BME280;40825;52.270;20.984;2022-08-03T02:25:26;100819.08;;;19.92;72.48
54924;BME280;40825;52.270;20.984;2022-08-03T02:27:09;100817.92;;;19.86;72.42
54924;BME280;40825;52.270;20.984;2022-08-03T02:27:36;100815.79;;;19.85;72.58
54924;BME280;40825;52.270;20.984;2022-08-03T02:28:07;100816.67;;;19.86;72.66
54924;BME280;40825;52.270;20.984;2022-08-03T02:28:33;100817.58;;;19.88;72.67
54924;BME280;40825;52.270;20.984;2022-08-03T02:29:14;100818.96;;;19.90;72.81
54924;BME280;40825;52.270;20.984;2022-08-03T02:29:40;100818.61;;;19.88;72.65
54924;BME280;40825;52.270;20.984;2022-08-03T02:30:07;100821.96;;;19.88;72.69
54924;BME280;40825;52.270;20.984;2022-08-03T02:30:36;100823.06;;;19.89;72.62
54924;BME280;40825;52.270;20.984;2022-08-03T02:31:00;100822.03;;;19.89;72.53
54924;BME280;40825;52.270;20.984;2022-08-03T02:31:49;100824.77;;;19.87;72.61
54924;BME280;40825;52.270;20.984;2022-08-03T02:32:36;100820.25;;;19.80;72.52
54924;BME280;40825;52.270;20.984;2022-08-03T02:33:02;100821.82;;;19.79;72.84
54924;BME280;40825;52.270;20.984;2022-08-03T02:34:01;100822.56;;;19.82;72.81
54924;BME280;40825;52.270;20.984;2022-08-03T02:34:26;100822.21;;;19.81;72.61
54924;BME280;40825;52.270;20.984;2022-08-03T02:34:59;100820.65;;;19.80;72.80
54924;BME280;40825;52.270;20.984;2022-08-03T02:35:42;100819.34;;;19.83;72.82
54924;BME280;40825;52.270;20.984;2022-08-03T02:36:07;100820.34;;;19.82;72.81
54924;BME280;40825;52.270;20.984;2022-08-03T02:36:31;100822.76;;;19.83;73.02
54924;BME280;40825;52.270;20.984;2022-08-03T02:38:20;100821.21;;;19.75;72.61
54924;BME280;40825;52.270;20.984;2022-08-03T02:38:58;100823.44;;;19.74;72.84
54924;BME280;40825;52.270;20.984;2022-08-03T02:39:35;100822.60;;;19.74;72.85
54924;BME280;40825;52.270;20.984;2022-08-03T02:40:04;100824.02;;;19.75;72.70
54924;BME280;40825;52.270;20.984;2022-08-03T02:40:54;100825.27;;;19.73;72.82
54924;BME280;40825;52.270;20.984;2022-08-03T02:41:23;100821.20;;;19.73;72.84
54924;BME280;40825;52.270;20.984;2022-08-03T02:41:49;100822.13;;;19.73;73.15
54924;BME280;40825;52.270;20.984;2022-08-03T02:42:13;100822.66;;;19.75;73.08
54924;BME280;40825;52.270;20.984;2022-08-03T02:42:52;100825.04;;;19.75;72.91
54924;BME280;40825;52.270;20.984;2022-08-03T02:43:20;100824.02;;;19.75;73.11